Archival Weather

Murmansk

Murmansk, Russia (ULMM)

Report from: Tuesday, May 21, 2024 5:00 PM MSK
Current time: Monday, June 17, 2024 9:13 AM MSK

Current weather – Weather history – Daily summaries
Weather forecast

Temperature4.0°C (39.2°F)
Wind chill1.2°C (34.2°F)
Dew point-7.0°C (19.4°F)
Winds 6 kts (3.1 m/s, 6.9 mph) Northwest (310°)
Wind gusts 21.4 kts (11 m/s, 24.6 mph)
Clouds Sky clear
Altimeter30.24 in.Hg (1024 mB)
Precip. events QF 1:41 AM
Relative humidity44 %
Density altitude-1,636 ft. (-499 m)
Remarks Ceiling and visibility OK
No significant changes expected in the next two hours
Flight conditions Visual Meteorological Conditions
Raw dataULMM 211400Z 31006G11MPS CAVOK 04/M07 Q1024 R31/250049 NOSIG RMK QFE761
An error has occurred. This application may no longer respond until reloaded. Reload 🗙